sensor_id;sensor_type;location;lat;lon;timestamp;pressure;altitude;pressure_sealevel;temperature;humidity
4410;BME280;2218;51.408;7.208;2023-03-31T00:02:13;98683.09;;;19.87;45.08
4410;BME280;2218;51.408;7.208;2023-03-31T00:04:40;98695.44;;;19.87;45.18
4410;BME280;2218;51.408;7.208;2023-03-31T00:07:12;98686.69;;;19.86;45.07
4410;BME280;2218;51.408;7.208;2023-03-31T00:09:41;98670.88;;;19.86;45.17
4410;BME280;2218;51.408;7.208;2023-03-31T00:12:11;98675.31;;;19.86;45.22
4410;BME280;2218;51.408;7.208;2023-03-31T00:14:39;98676.16;;;19.86;45.05
4410;BME280;2218;51.408;7.208;2023-03-31T00:17:06;98669.06;;;19.87;45.12
4410;BME280;2218;51.408;7.208;2023-03-31T00:19:34;98664.78;;;19.86;45.07
4410;BME280;2218;51.408;7.208;2023-03-31T00:22:00;98648.13;;;19.85;45.14
4410;BME280;2218;51.408;7.208;2023-03-31T00:24:30;98653.41;;;19.85;45.18
4410;BME280;2218;51.408;7.208;2023-03-31T00:26:58;98644.66;;;19.85;45.03
4410;BME280;2218;51.408;7.208;2023-03-31T00:29:25;98637.69;;;19.84;45.38
4410;BME280;2218;51.408;7.208;2023-03-31T00:31:54;98634.22;;;19.83;45.09
4410;BME280;2218;51.408;7.208;2023-03-31T00:34:21;98636.03;;;19.83;45.06
4410;BME280;2218;51.408;7.208;2023-03-31T00:36:48;98628.94;;;19.83;45.28
4410;BME280;2218;51.408;7.208;2023-03-31T00:39:18;98619.38;;;19.82;45.06
4410;BME280;2218;51.408;7.208;2023-03-31T00:41:45;98620.34;;;19.81;45.05
4410;BME280;2218;51.408;7.208;2023-03-31T00:44:14;98604.53;;;19.81;45.22
4410;BME280;2218;51.408;7.208;2023-03-31T00:46:49;98614.09;;;19.82;44.99
4410;BME280;2218;51.408;7.208;2023-03-31T00:49:26;98608.00;;;19.82;45.24
4410;BME280;2218;51.408;7.208;2023-03-31T00:52:00;98600.25;;;19.80;45.24
4410;BME280;2218;51.408;7.208;2023-03-31T00:54:31;98600.25;;;19.80;45.21
4410;BME280;2218;51.408;7.208;2023-03-31T00:57:01;98596.78;;;19.80;44.96
4410;BME280;2218;51.408;7.208;2023-03-31T00:59:36;98597.59;;;19.80;45.15
4410;BME280;2218;51.408;7.208;2023-03-31T01:02:05;98592.34;;;19.80;45.00
4410;BME280;2218;51.408;7.208;2023-03-31T01:04:38;98582.78;;;19.79;45.07
4410;BME280;2218;51.408;7.208;2023-03-31T01:07:17;98582.78;;;19.79;45.03
4410;BME280;2218;51.408;7.208;2023-03-31T01:09:49;98574.97;;;19.78;45.18
4410;BME280;2218;51.408;7.208;2023-03-31T01:12:21;98565.25;;;19.78;45.15
4410;BME280;2218;51.408;7.208;2023-03-31T01:14:50;98557.34;;;19.78;44.99
4410;BME280;2218;51.408;7.208;2023-03-31T01:17:20;98552.91;;;19.79;44.91
4410;BME280;2218;51.408;7.208;2023-03-31T01:20:02;98550.41;;;19.77;44.75
4410;BME280;2218;51.408;7.208;2023-03-31T01:23:22;98548.75;;;19.76;45.19
4410;BME280;2218;51.408;7.208;2023-03-31T01:26:43;98537.25;;;19.77;44.81
4410;BME280;2218;51.408;7.208;2023-03-31T01:29:52;98528.50;;;19.77;44.85
4410;BME280;2218;51.408;7.208;2023-03-31T01:33:16;98525.03;;;19.76;45.06
4410;BME280;2218;51.408;7.208;2023-03-31T01:36:45;98508.25;;;19.77;44.79
4410;BME280;2218;51.408;7.208;2023-03-31T01:43:04;98493.56;;;19.75;44.85
4410;BME280;2218;51.408;7.208;2023-03-31T01:45:49;98493.56;;;19.75;45.00
4410;BME280;2218;51.408;7.208;2023-03-31T01:48:29;98493.56;;;19.75;44.98
4410;BME280;2218;51.408;7.208;2023-03-31T01:51:02;98483.84;;;19.75;45.00
4410;BME280;2218;51.408;7.208;2023-03-31T01:53:43;98487.44;;;19.74;45.07
4410;BME280;2218;51.408;7.208;2023-03-31T01:56:20;98480.50;;;19.73;45.08
4410;BME280;2218;51.408;7.208;2023-03-31T01:58:56;98471.75;;;19.73;45.12
4410;BME280;2218;51.408;7.208;2023-03-31T02:01:32;98471.75;;;19.73;45.08
4410;BME280;2218;51.408;7.208;2023-03-31T02:04:10;98471.75;;;19.73;44.98
4410;BME280;2218;51.408;7.208;2023-03-31T02:06:45;98469.13;;;19.73;45.05
4410;BME280;2218;51.408;7.208;2023-03-31T02:09:19;98469.13;;;19.73;45.21
4410;BME280;2218;51.408;7.208;2023-03-31T02:11:48;98465.66;;;19.72;45.06
4410;BME280;2218;51.408;7.208;2023-03-31T02:14:22;98457.75;;;19.72;45.24
4410;BME280;2218;51.408;7.208;2023-03-31T02:16:56;98458.72;;;19.71;45.05
4410;BME280;2218;51.408;7.208;2023-03-31T02:19:32;98438.63;;;19.70;45.25
4410;BME280;2218;51.408;7.208;2023-03-31T02:22:03;98440.28;;;19.71;44.99
4410;BME280;2218;51.408;7.208;2023-03-31T02:24:33;98432.38;;;19.71;45.30
4410;BME280;2218;51.408;7.208;2023-03-31T02:27:09;98432.50;;;19.70;45.34
4410;BME280;2218;51.408;7.208;2023-03-31T02:29:41;98427.25;;;19.70;45.34
4410;BME280;2218;51.408;7.208;2023-03-31T02:32:15;98421.16;;;19.69;45.27
4410;BME280;2218;51.408;7.208;2023-03-31T02:34:45;98415.00;;;19.69;45.41
4410;BME280;2218;51.408;7.208;2023-03-31T02:37:13;98407.00;;;19.70;45.24
4410;BME280;2218;51.408;7.208;2023-03-31T02:39:47;98411.28;;;19.71;45.24
4410;BME280;2218;51.408;7.208;2023-03-31T02:42:15;98398.09;;;19.71;45.13
4410;BME280;2218;51.408;7.208;2023-03-31T02:44:44;98387.56;;;19.71;45.21
4410;BME280;2218;51.408;7.208;2023-03-31T02:47:14;98374.53;;;19.70;44.99
4410;BME280;2218;51.408;7.208;2023-03-31T02:49:48;98375.34;;;19.70;45.09
4410;BME280;2218;51.408;7.208;2023-03-31T02:52:35;98369.09;;;19.71;44.85
4410;BME280;2218;51.408;7.208;2023-03-31T02:55:38;98361.19;;;19.71;45.39
4410;BME280;2218;51.408;7.208;2023-03-31T02:58:28;98344.56;;;19.71;45.29
4410;BME280;2218;51.408;7.208;2023-03-31T03:01:22;98339.28;;;19.71;45.25
4410;BME280;2218;51.408;7.208;2023-03-31T03:04:07;98334.84;;;19.71;45.47
4410;BME280;2218;51.408;7.208;2023-03-31T03:06:45;98316.41;;;19.71;45.29
4410;BME280;2218;51.408;7.208;2023-03-31T03:09:34;98305.84;;;19.71;45.32
4410;BME280;2218;51.408;7.208;2023-03-31T03:12:11;98301.56;;;19.70;45.23
4410;BME280;2218;51.408;7.208;2023-03-31T03:14:48;98297.94;;;19.71;45.40
4410;BME280;2218;51.408;7.208;2023-03-31T03:17:24;98292.69;;;19.71;45.45
4410;BME280;2218;51.408;7.208;2023-03-31T03:19:55;98285.75;;;19.70;45.34
4410;BME280;2218;51.408;7.208;2023-03-31T03:22:22;98287.41;;;19.71;45.57
4410;BME280;2218;51.408;7.208;2023-03-31T03:24:50;98279.50;;;19.71;45.61
4410;BME280;2218;51.408;7.208;2023-03-31T03:27:19;98271.59;;;19.71;45.62
4410;BME280;2218;51.408;7.208;2023-03-31T03:29:47;98263.69;;;19.71;45.36
4410;BME280;2218;51.408;7.208;2023-03-31T03:32:14;98254.13;;;19.70;45.50
4410;BME280;2218;51.408;7.208;2023-03-31T03:34:42;98237.47;;;19.70;46.08
4410;BME280;2218;51.408;7.208;2023-03-31T03:37:09;98240.94;;;19.70;45.70
4410;BME280;2218;51.408;7.208;2023-03-31T03:39:36;98251.47;;;19.70;45.64
4410;BME280;2218;51.408;7.208;2023-03-31T03:42:03;98232.22;;;19.70;45.63
4410;BME280;2218;51.408;7.208;2023-03-31T03:44:30;98234.69;;;19.71;45.55
4410;BME280;2218;51.408;7.208;2023-03-31T03:46:57;98223.47;;;19.69;45.57
4410;BME280;2218;51.408;7.208;2023-03-31T03:49:24;98211.13;;;19.70;45.62
4410;BME280;2218;51.408;7.208;2023-03-31T03:51:52;98222.50;;;19.70;45.56
4410;BME280;2218;51.408;7.208;2023-03-31T03:54:19;98213.59;;;19.71;45.57
4410;BME280;2218;51.408;7.208;2023-03-31T03:56:46;98210.97;;;19.71;45.57
4410;BME280;2218;51.408;7.208;2023-03-31T03:59:13;98213.59;;;19.71;45.69
4410;BME280;2218;51.408;7.208;2023-03-31T04:01:40;98214.59;;;19.70;45.73
4410;BME280;2218;51.408;7.208;2023-03-31T04:04:07;98203.22;;;19.70;45.56
4410;BME280;2218;51.408;7.208;2023-03-31T04:06:34;98186.59;;;19.69;45.54
4410;BME280;2218;51.408;7.208;2023-03-31T04:09:03;98196.13;;;19.70;45.73
4410;BME280;2218;51.408;7.208;2023-03-31T04:11:30;98192.53;;;19.71;45.80
4410;BME280;2218;51.408;7.208;2023-03-31T04:13:57;98186.28;;;19.72;45.75
4410;BME280;2218;51.408;7.208;2023-03-31T04:16:24;98178.22;;;19.74;45.76
4410;BME280;2218;51.408;7.208;2023-03-31T04:18:51;98168.38;;;19.76;45.76
4410;BME280;2218;51.408;7.208;2023-03-31T04:21:22;98166.41;;;19.78;45.85
4410;BME280;2218;51.408;7.208;2023-03-31T04:23:50;98170.69;;;19.79;45.97
4410;BME280;2218;51.408;7.208;2023-03-31T04:26:27;98167.78;;;19.82;45.82
4410;BME280;2218;51.408;7.208;2023-03-31T04:29:04;98153.59;;;19.83;45.74
4410;BME280;2218;51.408;7.208;2023-03-31T04:31:32;98150.69;;;19.86;45.85
4410;BME280;2218;51.408;7.208;2023-03-31T04:34:04;98146.25;;;19.86;45.71
4410;BME280;2218;51.408;7.208;2023-03-31T04:36:31;98137.34;;;19.87;45.67
4410;BME280;2218;51.408;7.208;2023-03-31T04:38:59;98135.41;;;19.90;45.77
4410;BME280;2218;51.408;7.208;2023-03-31T04:41:27;98144.97;;;19.91;45.66
4410;BME280;2218;51.408;7.208;2023-03-31T04:43:54;98144.81;;;19.92;45.80
4410;BME280;2218;51.408;7.208;2023-03-31T04:46:21;98135.09;;;19.93;45.65
4410;BME280;2218;51.408;7.208;2023-03-31T04:48:48;98126.91;;;19.96;45.83
4410;BME280;2218;51.408;7.208;2023-03-31T04:51:15;98127.88;;;19.95;45.84
4410;BME280;2218;51.408;7.208;2023-03-31T04:53:42;98122.63;;;19.95;45.62
4410;BME280;2218;51.408;7.208;2023-03-31T04:56:10;98121.63;;;19.96;45.79
4410;BME280;2218;51.408;7.208;2023-03-31T04:58:38;98105.81;;;19.96;45.71
4410;BME280;2218;51.408;7.208;2023-03-31T05:01:05;98107.63;;;19.95;45.73
4410;BME280;2218;51.408;7.208;2023-03-31T05:03:32;98097.06;;;19.95;45.69
4410;BME280;2218;51.408;7.208;2023-03-31T05:05:59;98087.34;;;19.96;45.75
4410;BME280;2218;51.408;7.208;2023-03-31T05:08:26;98083.06;;;19.95;45.63
4410;BME280;2218;51.408;7.208;2023-03-31T05:10:54;98077.78;;;19.95;45.71
4410;BME280;2218;51.408;7.208;2023-03-31T05:13:20;98076.13;;;19.94;45.69
4410;BME280;2218;51.408;7.208;2023-03-31T05:15:49;98079.59;;;19.94;45.68
4410;BME280;2218;51.408;7.208;2023-03-31T05:18:16;98065.56;;;19.94;45.68
4410;BME280;2218;51.408;7.208;2023-03-31T05:20:43;98053.25;;;19.94;45.53
4410;BME280;2218;51.408;7.208;2023-03-31T05:23:11;98034.91;;;19.93;45.74
4410;BME280;2218;51.408;7.208;2023-03-31T05:25:38;98023.53;;;19.92;45.71
4410;BME280;2218;51.408;7.208;2023-03-31T05:28:07;98026.19;;;19.92;45.53
4410;BME280;2218;51.408;7.208;2023-03-31T05:30:34;98013.81;;;19.93;45.42
4410;BME280;2218;51.408;7.208;2023-03-31T05:33:02;98006.91;;;19.92;45.48
4410;BME280;2218;51.408;7.208;2023-03-31T05:35:29;98004.28;;;19.92;45.47
4410;BME280;2218;51.408;7.208;2023-03-31T05:37:56;98001.63;;;19.92;45.53
4410;BME280;2218;51.408;7.208;2023-03-31T05:40:23;97999.97;;;19.91;45.43
4410;BME280;2218;51.408;7.208;2023-03-31T05:42:50;97982.50;;;19.90;45.59
4410;BME280;2218;51.408;7.208;2023-03-31T05:45:17;97977.25;;;19.90;45.67
4410;BME280;2218;51.408;7.208;2023-03-31T05:47:44;97971.97;;;19.90;45.73
4410;BME280;2218;51.408;7.208;2023-03-31T05:50:12;97969.34;;;19.90;45.43
4410;BME280;2218;51.408;7.208;2023-03-31T05:52:39;97963.25;;;19.89;45.57
4410;BME280;2218;51.408;7.208;2023-03-31T05:55:08;97965.03;;;19.88;45.38
4410;BME280;2218;51.408;7.208;2023-03-31T05:57:35;97958.91;;;19.88;45.70
4410;BME280;2218;51.408;7.208;2023-03-31T06:00:03;97958.91;;;19.88;45.53
4410;BME280;2218;51.408;7.208;2023-03-31T06:02:32;97956.28;;;19.88;45.46
4410;BME280;2218;51.408;7.208;2023-03-31T06:04:59;97951.84;;;19.88;45.64
4410;BME280;2218;51.408;7.208;2023-03-31T06:07:27;97941.28;;;19.88;45.60
4410;BME280;2218;51.408;7.208;2023-03-31T06:09:54;97934.38;;;19.87;45.60
4410;BME280;2218;51.408;7.208;2023-03-31T06:12:21;97937.00;;;19.87;45.65
4410;BME280;2218;51.408;7.208;2023-03-31T06:14:48;97929.94;;;19.88;45.54
4410;BME280;2218;51.408;7.208;2023-03-31T06:17:15;97926.34;;;19.89;45.45
4410;BME280;2218;51.408;7.208;2023-03-31T06:19:42;97924.53;;;19.90;45.66
4410;BME280;2218;51.408;7.208;2023-03-31T06:22:09;97909.53;;;19.90;45.58
4410;BME280;2218;51.408;7.208;2023-03-31T06:24:37;97923.38;;;19.92;45.58
4410;BME280;2218;51.408;7.208;2023-03-31T06:27:05;97918.47;;;19.97;45.88
4410;BME280;2218;51.408;7.208;2023-03-31T06:29:32;97913.19;;;19.97;45.94
4410;BME280;2218;51.408;7.208;2023-03-31T06:31:59;97914.69;;;20.00;45.80
4410;BME280;2218;51.408;7.208;2023-03-31T06:34:26;97913.03;;;19.99;45.86
4410;BME280;2218;51.408;7.208;2023-03-31T06:36:53;97908.75;;;19.98;45.78
4410;BME280;2218;51.408;7.208;2023-03-31T06:39:21;97903.47;;;19.98;45.73
4410;BME280;2218;51.408;7.208;2023-03-31T06:41:49;97898.19;;;19.98;45.74
4410;BME280;2218;51.408;7.208;2023-03-31T06:44:25;97906.94;;;19.98;45.70
4410;BME280;2218;51.408;7.208;2023-03-31T06:46:52;97899.84;;;19.99;45.70
4410;BME280;2218;51.408;7.208;2023-03-31T06:49:19;97899.84;;;19.99;45.68
4410;BME280;2218;51.408;7.208;2023-03-31T06:51:46;97893.75;;;19.98;45.62
4410;BME280;2218;51.408;7.208;2023-03-31T06:54:13;97891.94;;;19.99;45.68
4410;BME280;2218;51.408;7.208;2023-03-31T06:56:40;97887.66;;;19.98;45.67
4410;BME280;2218;51.408;7.208;2023-03-31T06:59:08;97887.66;;;19.98;45.73
4410;BME280;2218;51.408;7.208;2023-03-31T07:01:36;97886.00;;;19.97;45.84
4410;BME280;2218;51.408;7.208;2023-03-31T07:04:04;97880.72;;;19.97;45.77
4410;BME280;2218;51.408;7.208;2023-03-31T07:06:31;97886.16;;;19.95;45.87
4410;BME280;2218;51.408;7.208;2023-03-31T07:08:57;97884.34;;;19.96;45.88
4410;BME280;2218;51.408;7.208;2023-03-31T07:11:24;97879.09;;;19.96;45.85
4410;BME280;2218;51.408;7.208;2023-03-31T07:13:51;97879.09;;;19.96;45.77
4410;BME280;2218;51.408;7.208;2023-03-31T07:16:20;97887.00;;;19.96;45.72
4410;BME280;2218;51.408;7.208;2023-03-31T07:18:48;97881.88;;;19.94;45.73
4410;BME280;2218;51.408;7.208;2023-03-31T07:21:18;97880.06;;;19.95;45.85
4410;BME280;2218;51.408;7.208;2023-03-31T07:23:46;97881.88;;;19.94;45.87
4410;BME280;2218;51.408;7.208;2023-03-31T07:26:13;97887.97;;;19.95;45.98
4410;BME280;2218;51.408;7.208;2023-03-31T07:28:40;97888.94;;;19.94;45.92
4410;BME280;2218;51.408;7.208;2023-03-31T07:31:11;97875.75;;;19.94;46.09
4410;BME280;2218;51.408;7.208;2023-03-31T07:33:39;97880.19;;;19.93;45.88
4410;BME280;2218;51.408;7.208;2023-03-31T07:36:07;97874.09;;;19.93;46.00
4410;BME280;2218;51.408;7.208;2023-03-31T07:38:34;97873.13;;;19.94;46.11
4410;BME280;2218;51.408;7.208;2023-03-31T07:41:01;97870.47;;;19.94;46.01
4410;BME280;2218;51.408;7.208;2023-03-31T07:43:28;97871.34;;;19.94;46.18
4410;BME280;2218;51.408;7.208;2023-03-31T07:45:55;97877.44;;;19.95;46.12
4410;BME280;2218;51.408;7.208;2023-03-31T07:48:22;97880.06;;;19.95;46.21
4410;BME280;2218;51.408;7.208;2023-03-31T07:50:50;97867.72;;;19.95;46.17
4410;BME280;2218;51.408;7.208;2023-03-31T07:53:26;97864.91;;;19.97;46.27
4410;BME280;2218;51.408;7.208;2023-03-31T07:55:54;97862.28;;;19.97;46.32
4410;BME280;2218;51.408;7.208;2023-03-31T07:58:21;97856.00;;;19.98;46.18
4410;BME280;2218;51.408;7.208;2023-03-31T08:00:49;97856.84;;;19.98;46.27
4410;BME280;2218;51.408;7.208;2023-03-31T08:03:16;97848.94;;;19.98;46.29
4410;BME280;2218;51.408;7.208;2023-03-31T08:05:43;97847.97;;;19.99;46.38
4410;BME280;2218;51.408;7.208;2023-03-31T08:08:12;97847.97;;;19.99;46.41
4410;BME280;2218;51.408;7.208;2023-03-31T08:10:39;97844.34;;;20.00;46.37
4410;BME280;2218;51.408;7.208;2023-03-31T08:13:06;97839.06;;;20.00;46.46
4410;BME280;2218;51.408;7.208;2023-03-31T08:15:33;97831.97;;;20.01;46.15
4410;BME280;2218;51.408;7.208;2023-03-31T08:18:00;97838.09;;;20.01;46.22
4410;BME280;2218;51.408;7.208;2023-03-31T08:20:26;97840.56;;;20.03;46.33
4410;BME280;2218;51.408;7.208;2023-03-31T08:22:53;97838.75;;;20.03;46.21
4410;BME280;2218;51.408;7.208;2023-03-31T08:25:22;97837.91;;;20.03;46.06
4410;BME280;2218;51.408;7.208;2023-03-31T08:27:49;97839.56;;;20.04;46.28
4410;BME280;2218;51.408;7.208;2023-03-31T08:30:18;97831.66;;;20.04;46.23
4410;BME280;2218;51.408;7.208;2023-03-31T08:32:45;97831.66;;;20.04;46.14
4410;BME280;2218;51.408;7.208;2023-03-31T08:35:12;97836.94;;;20.04;46.19
4410;BME280;2218;51.408;7.208;2023-03-31T08:37:39;97829.88;;;20.04;46.18
4410;BME280;2218;51.408;7.208;2023-03-31T08:40:14;97819.31;;;20.04;46.22
4410;BME280;2218;51.408;7.208;2023-03-31T08:42:48;97820.16;;;20.05;46.21
4410;BME280;2218;51.408;7.208;2023-03-31T08:45:21;97822.78;;;20.05;46.12
4410;BME280;2218;51.408;7.208;2023-03-31T08:47:54;97809.59;;;20.05;46.43
4410;BME280;2218;51.408;7.208;2023-03-31T08:50:27;97813.19;;;20.04;46.13
4410;BME280;2218;51.408;7.208;2023-03-31T08:53:03;97815.84;;;20.04;46.22
4410;BME280;2218;51.408;7.208;2023-03-31T08:55:40;97801.81;;;20.03;46.13
4410;BME280;2218;51.408;7.208;2023-03-31T08:58:28;97801.81;;;20.03;46.14
4410;BME280;2218;51.408;7.208;2023-03-31T09:01:07;97813.19;;;20.04;46.21
4410;BME280;2218;51.408;7.208;2023-03-31T09:03:49;97815.19;;;20.02;46.29
4410;BME280;2218;51.408;7.208;2023-03-31T09:06:25;97807.91;;;20.04;46.22
4410;BME280;2218;51.408;7.208;2023-03-31T09:09:01;97810.72;;;20.02;46.11
4410;BME280;2218;51.408;7.208;2023-03-31T09:11:34;97814.19;;;20.03;46.18
4410;BME280;2218;51.408;7.208;2023-03-31T09:14:18;97811.56;;;20.03;46.15
4410;BME280;2218;51.408;7.208;2023-03-31T09:16:59;97818.47;;;20.04;46.07
4410;BME280;2218;51.408;7.208;2023-03-31T09:19:36;97812.38;;;20.03;46.21
4410;BME280;2218;51.408;7.208;2023-03-31T09:22:10;97822.09;;;20.03;46.28
4410;BME280;2218;51.408;7.208;2023-03-31T09:24:51;97819.31;;;20.04;46.21
4410;BME280;2218;51.408;7.208;2023-03-31T09:27:25;97814.06;;;20.04;46.23
4410;BME280;2218;51.408;7.208;2023-03-31T09:30:02;97811.41;;;20.04;46.04
4410;BME280;2218;51.408;7.208;2023-03-31T09:32:31;97804.97;;;20.07;46.03
4410;BME280;2218;51.408;7.208;2023-03-31T09:35:11;97792.63;;;20.07;46.07
4410;BME280;2218;51.408;7.208;2023-03-31T09:37:39;97797.06;;;20.07;46.04
4410;BME280;2218;51.408;7.208;2023-03-31T09:40:17;97788.16;;;20.08;46.10
4410;BME280;2218;51.408;7.208;2023-03-31T09:42:46;97787.22;;;20.09;46.03
4410;BME280;2218;51.408;7.208;2023-03-31T09:45:18;97779.31;;;20.09;46.07
4410;BME280;2218;51.408;7.208;2023-03-31T09:47:50;97780.94;;;20.10;46.06
4410;BME280;2218;51.408;7.208;2023-03-31T09:50:18;97770.41;;;20.10;46.13
4410;BME280;2218;51.408;7.208;2023-03-31T09:52:51;97768.59;;;20.10;46.16
4410;BME280;2218;51.408;7.208;2023-03-31T09:55:21;97775.69;;;20.10;46.11
4410;BME280;2218;51.408;7.208;2023-03-31T09:57:50;97771.22;;;20.10;45.97
4410;BME280;2218;51.408;7.208;2023-03-31T10:00:21;97760.69;;;20.10;45.80
4410;BME280;2218;51.408;7.208;2023-03-31T10:02:50;97765.13;;;20.10;46.15
4410;BME280;2218;51.408;7.208;2023-03-31T10:05:27;97759.03;;;20.09;46.10
4410;BME280;2218;51.408;7.208;2023-03-31T10:08:25;97756.22;;;20.11;46.13
4410;BME280;2218;51.408;7.208;2023-03-31T10:10:55;97746.50;;;20.11;46.03
4410;BME280;2218;51.408;7.208;2023-03-31T10:13:25;97742.06;;;20.12;46.20
4410;BME280;2218;51.408;7.208;2023-03-31T10:16:03;97734.13;;;20.12;46.09
4410;BME280;2218;51.408;7.208;2023-03-31T10:18:35;97726.22;;;20.12;46.06
4410;BME280;2218;51.408;7.208;2023-03-31T10:21:05;97733.16;;;20.13;46.03
4410;BME280;2218;51.408;7.208;2023-03-31T10:23:34;97715.69;;;20.12;46.05
4410;BME280;2218;51.408;7.208;2023-03-31T10:26:03;97709.41;;;20.13;46.24
4410;BME280;2218;51.408;7.208;2023-03-31T10:28:33;97721.78;;;20.12;46.06
4410;BME280;2218;51.408;7.208;2023-03-31T10:31:03;97706.94;;;20.11;46.06
4410;BME280;2218;51.408;7.208;2023-03-31T10:33:39;97707.78;;;20.12;46.09
4410;BME280;2218;51.408;7.208;2023-03-31T10:36:19;97734.31;;;20.10;46.23
4410;BME280;2218;51.408;7.208;2023-03-31T10:38:49;97722.94;;;20.10;46.24
4410;BME280;2218;51.408;7.208;2023-03-31T10:41:20;97730.84;;;20.10;46.22
4410;BME280;2218;51.408;7.208;2023-03-31T10:43:51;97738.75;;;20.10;46.01
4410;BME280;2218;51.408;7.208;2023-03-31T10:46:38;97715.69;;;20.12;46.32
4410;BME280;2218;51.408;7.208;2023-03-31T10:49:15;97716.38;;;20.14;46.53
4410;BME280;2218;51.408;7.208;2023-03-31T10:51:48;97712.75;;;20.15;46.39
4410;BME280;2218;51.408;7.208;2023-03-31T10:54:15;97707.28;;;20.17;46.34
4410;BME280;2218;51.408;7.208;2023-03-31T10:56:46;97710.75;;;20.17;46.27
4410;BME280;2218;51.408;7.208;2023-03-31T10:59:32;97694.94;;;20.17;46.26
4410;BME280;2218;51.408;7.208;2023-03-31T11:02:36;97694.75;;;20.19;46.36
4410;BME280;2218;51.408;7.208;2023-03-31T11:05:17;97686.72;;;20.20;46.27
4410;BME280;2218;51.408;7.208;2023-03-31T11:08:02;97676.97;;;20.21;46.25
4410;BME280;2218;51.408;7.208;2023-03-31T11:10:51;97676.97;;;20.21;46.30
4410;BME280;2218;51.408;7.208;2023-03-31T11:13:26;97661.81;;;20.23;46.23
4410;BME280;2218;51.408;7.208;2023-03-31T11:16:10;97658.34;;;20.22;46.34
4410;BME280;2218;51.408;7.208;2023-03-31T11:19:00;97659.16;;;20.23;46.34
4410;BME280;2218;51.408;7.208;2023-03-31T11:21:44;97654.72;;;20.23;46.30
4410;BME280;2218;51.408;7.208;2023-03-31T11:24:35;97671.53;;;20.22;46.48
4410;BME280;2218;51.408;7.208;2023-03-31T11:27:26;97702.53;;;20.20;46.67
4410;BME280;2218;51.408;7.208;2023-03-31T11:30:03;97720.16;;;20.20;46.72
4410;BME280;2218;51.408;7.208;2023-03-31T11:32:54;97721.97;;;20.19;46.72
4410;BME280;2218;51.408;7.208;2023-03-31T11:35:46;97723.63;;;20.20;46.63
4410;BME280;2218;51.408;7.208;2023-03-31T11:38:46;97719.34;;;20.19;46.76
4410;BME280;2218;51.408;7.208;2023-03-31T11:41:30;97721.81;;;20.21;46.75
4410;BME280;2218;51.408;7.208;2023-03-31T11:44:01;97724.44;;;20.21;46.94
4410;BME280;2218;51.408;7.208;2023-03-31T11:46:40;97718.34;;;20.20;46.94
4410;BME280;2218;51.408;7.208;2023-03-31T11:49:17;97720.16;;;20.20;46.97
4410;BME280;2218;51.408;7.208;2023-03-31T11:51:54;97722.81;;;20.20;46.89
4410;BME280;2218;51.408;7.208;2023-03-31T11:54:28;97711.44;;;20.19;46.86
4410;BME280;2218;51.408;7.208;2023-03-31T11:57:00;97721.00;;;20.20;47.13
4410;BME280;2218;51.408;7.208;2023-03-31T11:59:31;97714.72;;;20.21;47.15
4410;BME280;2218;51.408;7.208;2023-03-31T12:02:09;97711.09;;;20.22;46.94
4410;BME280;2218;51.408;7.208;2023-03-31T12:04:44;97704.81;;;20.23;47.04
4410;BME280;2218;51.408;7.208;2023-03-31T12:07:23;97703.00;;;20.24;47.07
4410;BME280;2218;51.408;7.208;2023-03-31T12:10:02;97695.94;;;20.24;47.15
4410;BME280;2218;51.408;7.208;2023-03-31T12:12:34;97703.69;;;20.26;47.02
4410;BME280;2218;51.408;7.208;2023-03-31T12:15:13;97693.16;;;20.26;47.13
4410;BME280;2218;51.408;7.208;2023-03-31T12:17:48;97691.31;;;20.26;46.99
4410;BME280;2218;51.408;7.208;2023-03-31T12:20:29;97701.88;;;20.26;47.04
4410;BME280;2218;51.408;7.208;2023-03-31T12:23:02;97682.59;;;20.26;46.96
4410;BME280;2218;51.408;7.208;2023-03-31T12:25:44;97686.88;;;20.27;46.91
4410;BME280;2218;51.408;7.208;2023-03-31T12:28:16;97676.31;;;20.27;46.98
4410;BME280;2218;51.408;7.208;2023-03-31T12:30:45;97676.31;;;20.27;47.04
4410;BME280;2218;51.408;7.208;2023-03-31T12:33:19;97680.59;;;20.28;46.84
4410;BME280;2218;51.408;7.208;2023-03-31T12:36:10;97663.97;;;20.27;46.93
4410;BME280;2218;51.408;7.208;2023-03-31T12:38:55;97669.25;;;20.27;47.00
4410;BME280;2218;51.408;7.208;2023-03-31T12:41:35;97661.50;;;20.26;47.01
4410;BME280;2218;51.408;7.208;2023-03-31T12:44:29;97657.03;;;20.26;47.05
4410;BME280;2218;51.408;7.208;2023-03-31T12:47:23;97671.06;;;20.27;46.93
4410;BME280;2218;51.408;7.208;2023-03-31T12:50:08;97671.22;;;20.25;46.82
4410;BME280;2218;51.408;7.208;2023-03-31T12:52:47;97689.69;;;20.25;47.02
4410;BME280;2218;51.408;7.208;2023-03-31T12:55:36;97679.13;;;20.25;46.91
4410;BME280;2218;51.408;7.208;2023-03-31T12:58:38;97679.13;;;20.25;46.87
4410;BME280;2218;51.408;7.208;2023-03-31T13:01:21;97671.06;;;20.27;47.01
4410;BME280;2218;51.408;7.208;2023-03-31T13:04:07;97678.78;;;20.28;46.84
4410;BME280;2218;51.408;7.208;2023-03-31T13:06:56;97665.59;;;20.28;46.88
4410;BME280;2218;51.408;7.208;2023-03-31T13:09:48;97661.00;;;20.30;46.88
4410;BME280;2218;51.408;7.208;2023-03-31T13:12:22;97670.41;;;20.33;47.00
4410;BME280;2218;51.408;7.208;2023-03-31T13:14:54;97660.66;;;20.33;47.01
4410;BME280;2218;51.408;7.208;2023-03-31T13:17:30;97647.81;;;20.38;47.26
4410;BME280;2218;51.408;7.208;2023-03-31T13:20:25;97639.91;;;20.38;47.78
4410;BME280;2218;51.408;7.208;2023-03-31T13:23:15;97632.84;;;20.39;47.92
4410;BME280;2218;51.408;7.208;2023-03-31T13:25:48;97634.63;;;20.38;47.87
4410;BME280;2218;51.408;7.208;2023-03-31T13:28:37;97634.63;;;20.38;47.98
4410;BME280;2218;51.408;7.208;2023-03-31T13:31:08;97638.13;;;20.39;47.94
4410;BME280;2218;51.408;7.208;2023-03-31T13:33:53;97638.13;;;20.39;47.97
4410;BME280;2218;51.408;7.208;2023-03-31T13:37:02;97647.81;;;20.38;48.00
4410;BME280;2218;51.408;7.208;2023-03-31T13:40:09;97643.53;;;20.37;47.98
4410;BME280;2218;51.408;7.208;2023-03-31T13:43:09;97640.91;;;20.37;48.24
4410;BME280;2218;51.408;7.208;2023-03-31T13:46:00;97633.16;;;20.36;47.99
4410;BME280;2218;51.408;7.208;2023-03-31T13:48:49;97629.34;;;20.38;47.90
4410;BME280;2218;51.408;7.208;2023-03-31T13:51:42;97631.16;;;20.38;47.92
4410;BME280;2218;51.408;7.208;2023-03-31T13:55:00;97622.28;;;20.39;47.83
4410;BME280;2218;51.408;7.208;2023-03-31T13:58:13;97626.72;;;20.38;47.84
4410;BME280;2218;51.408;7.208;2023-03-31T14:00:58;97633.66;;;20.39;47.86
4410;BME280;2218;51.408;7.208;2023-03-31T14:03:53;97620.47;;;20.39;47.75
4410;BME280;2218;51.408;7.208;2023-03-31T14:06:32;97617.84;;;20.39;47.92